Time;durP1;ratioP1;P1;durP2;ratioP2;P2;SDS_P1;SDS_P2;PMS_P1;PMS_P2;Temp;Humidity;BMP_temperature;BMP_pressure;BME280_temperature;BME280_humidity;BME280_pressure;Samples;Min_cycle;Max_cycle;Signal;HPM_P1;HPM_P2
2022/07/15 00:02:37;;;;;;;1.73;0.60;;;;;;;18.44;85.41;101830.38;20953707;28;20073;-76
2022/07/15 00:12:48;;;;;;;1.33;0.63;;;;;;;18.59;85.35;101855.31;20979119;28;20076;-76
2022/07/15 00:22:50;;;;;;;0.70;0.40;;;;;;;18.67;85.26;101869.06;20971804;28;20123;-76
2022/07/15 00:32:51;;;;;;;1.50;0.80;;;;;;;18.67;85.10;101858.28;20989754;28;20041;-76
2022/07/15 00:42:53;;;;;;;0.73;0.47;;;;;;;18.58;85.10;101847.34;20988150;28;20451;-76
2022/07/15 00:52:57;;;;;;;0.65;0.50;;;;;;;18.66;85.07;101859.25;20989226;28;20052;-76
2022/07/15 01:02:59;;;;;;;0.93;0.60;;;;;;;18.66;84.95;101861.97;20986082;28;20084;-76
2022/07/15 01:13:02;;;;;;;0.95;0.40;;;;;;;18.64;84.98;101858.53;20972643;28;20052;-76
2022/07/15 01:23:04;;;;;;;1.00;0.57;;;;;;;18.63;84.97;101867.59;20973139;28;20049;-76
2022/07/15 01:33:12;;;;;;;0.60;0.60;;;;;;;18.47;84.86;101845.44;20971533;28;20040;-76
2022/07/15 01:43:14;;;;;;;1.48;0.60;;;;;;;18.48;85.03;101850.75;20970823;28;20044;-76
2022/07/15 01:53:17;;;;;;;0.73;0.63;;;;;;;18.62;85.01;101875.78;20948645;28;20087;-76
2022/07/15 02:03:19;;;;;;;0.95;0.40;;;;;;;18.62;84.88;101873.97;20887995;28;20128;-76
2022/07/15 02:13:23;;;;;;;0.63;0.50;;;;;;;18.16;84.73;101805.50;20882870;28;20409;-76
2022/07/15 02:23:31;;;;;;;0.77;0.50;;;;;;;18.61;84.74;101868.66;20952175;28;20059;-76
2022/07/15 02:33:33;;;;;;;1.15;0.55;;;;;;;18.60;84.88;101870.53;20968210;28;20079;-76
2022/07/15 02:43:36;;;;;;;1.05;0.68;;;;;;;18.51;84.68;101847.81;20967363;28;20485;-76
2022/07/15 02:53:39;;;;;;;0.77;0.70;;;;;;;18.59;84.54;101859.84;20867372;28;20079;-76
2022/07/15 03:03:45;;;;;;;1.02;0.60;;;;;;;18.58;84.68;101867.09;20812036;28;20061;-75
2022/07/15 03:13:53;;;;;;;1.13;0.50;;;;;;;18.58;84.76;101877.88;20938606;28;20047;-76
2022/07/15 03:23:55;;;;;;;0.70;0.50;;;;;;;18.41;84.07;101866.50;20872276;28;20106;-76
2022/07/15 03:33:57;;;;;;;1.42;0.68;;;;;;;18.57;83.65;101899.53;20902189;28;20081;-76
2022/07/15 03:44:02;;;;;;;1.40;0.80;;;;;;;18.55;83.26;101903.22;20879555;28;20045;-76
2022/07/15 03:54:04;;;;;;;1.42;0.60;;;;;;;18.55;82.96;101905.03;20797731;28;20048;-76
2022/07/15 04:04:06;;;;;;;1.13;0.60;;;;;;;18.24;82.78;101862.38;20799228;28;20099;-76
2022/07/15 04:14:11;;;;;;;2.22;0.65;;;;;;;18.54;82.43;101916.81;20916274;28;20056;-75
2022/07/15 04:24:14;;;;;;;1.70;0.63;;;;;;;18.12;82.19;101863.31;20959620;28;20098;-76
2022/07/15 04:34:24;;;;;;;0.95;0.75;;;;;;;18.54;82.06;101935.69;20878254;28;20095;-76
2022/07/15 04:44:26;;;;;;;1.05;0.60;;;;;;;18.50;81.61;101936.88;20878202;28;20045;-76
2022/07/15 04:54:30;;;;;;;1.10;0.70;;;;;;;18.53;81.53;101947.44;20957735;28;20223;-76
2022/07/15 05:04:32;;;;;;;2.00;0.70;;;;;;;18.52;81.30;101961.91;20951800;28;20452;-76
2022/07/15 05:14:35;;;;;;;1.45;0.52;;;;;;;18.35;81.30;101928.97;20971196;28;20044;-76
2022/07/15 05:24:36;;;;;;;1.23;0.52;;;;;;;18.39;81.03;101943.94;20940137;28;20414;-76
2022/07/15 05:34:38;;;;;;;1.42;0.70;;;;;;;18.51;81.05;101965.56;20889109;28;20404;-76
2022/07/15 05:44:43;;;;;;;1.98;0.80;;;;;;;18.51;81.06;101970.97;20891505;28;20501;-76
2022/07/15 05:54:45;;;;;;;0.45;0.43;;;;;;;18.34;80.98;101943.44;20867334;28;20490;-76
2022/07/15 06:04:47;;;;;;;1.73;0.68;;;;;;;18.51;81.91;101969.16;20849410;28;20042;-76
2022/07/15 06:14:48;;;;;;;1.15;0.50;;;;;;;18.45;83.16;101964.22;20844055;28;20049;-76
2022/07/15 06:24:53;;;;;;;4.80;1.03;;;;;;;18.51;90.00;101966.44;20841801;28;21002;-76
2022/07/15 06:34:55;;;;;;;28.23;3.33;;;;;;;18.66;100.00;101961.75;20833969;28;20045;-76
2022/07/15 06:44:56;;;;;;;8.70;1.80;;;;;;;18.74;100.00;101965.69;20860592;28;20128;-76
2022/07/15 06:54:58;;;;;;;4.30;1.08;;;;;;;18.76;98.44;101974.53;20864497;28;20067;-76
2022/07/15 07:05:00;;;;;;;4.18;1.00;;;;;;;18.78;91.33;101973.47;20775412;28;20037;-75
2022/07/15 07:15:05;;;;;;;2.40;0.73;;;;;;;18.80;87.72;101976.91;20823479;28;20068;-76
2022/07/15 07:25:07;;;;;;;2.97;0.77;;;;;;;18.86;86.75;101978.25;20775094;28;20049;-75
2022/07/15 07:35:09;;;;;;;4.75;0.80;;;;;;;18.81;86.31;101954.34;20769756;28;20095;-75
2022/07/15 07:45:11;;;;;;;7.82;0.70;;;;;;;18.98;85.99;101988.13;20770628;28;20053;-75
2022/07/15 07:55:14;;;;;;;2.10;0.68;;;;;;;18.95;85.40;101969.44;20774630;28;20045;-75
2022/07/15 08:05:20;;;;;;;2.22;0.98;;;;;;;18.94;85.38;101975.81;20850696;28;20073;-75
2022/07/15 08:15:26;;;;;;;1.90;0.63;;;;;;;18.90;83.92;101955.44;20861751;28;20072;-75
2022/07/15 08:25:30;;;;;;;2.83;0.43;;;;;;;19.01;82.27;101961.91;20877519;28;20061;-75
2022/07/15 08:35:32;;;;;;;1.98;0.40;;;;;;;19.02;80.63;101963.66;20878645;28;20127;-75
2022/07/15 08:45:36;;;;;;;1.45;0.38;;;;;;;18.86;79.90;101940.47;20885045;28;20051;-75
2022/07/15 08:55:38;;;;;;;1.10;0.40;;;;;;;19.12;79.16;101972.75;20876889;28;20056;-75
2022/07/15 09:05:40;;;;;;;0.75;0.40;;;;;;;19.11;79.36;101968.31;20859541;28;20570;-75
2022/07/15 09:15:41;;;;;;;0.75;0.30;;;;;;;19.13;80.06;101969.06;20863808;28;20127;-76
2022/07/15 09:25:43;;;;;;;0.47;0.25;;;;;;;18.96;81.10;101954.13;20868440;28;20049;-76
2022/07/15 09:36:03;;;;;;;0.40;0.30;;;;;;;19.07;81.88;101970.38;20872556;28;20094;-76
2022/07/15 09:46:06;;;;;;;1.05;0.30;;;;;;;19.05;82.13;101968.81;20861079;28;20048;-76
2022/07/15 09:56:16;;;;;;;0.90;0.20;;;;;;;19.01;82.50;101968.16;20875627;28;20051;-75
2022/07/15 10:06:19;;;;;;;1.00;0.30;;;;;;;18.98;81.76;101958.44;20879607;28;20611;-75
2022/07/15 10:16:41;;;;;;;1.20;0.30;;;;;;;18.82;82.46;101931.78;20816318;28;20120;-75
2022/07/15 10:27:13;;;;;;;2.08;0.50;;;;;;;19.01;80.62;101948.44;20785080;28;20073;-75
2022/07/15 10:37:15;;;;;;;1.58;0.40;;;;;;;19.03;79.49;101944.63;20852564;28;20048;-75
2022/07/15 10:47:19;;;;;;;0.38;0.25;;;;;;;19.04;78.67;101937.41;20808207;28;20099;-74
2022/07/15 10:57:44;;;;;;;0.70;0.20;;;;;;;19.02;78.34;101932.09;20869673;28;20051;-76
2022/07/15 11:07:45;;;;;;;0.98;0.28;;;;;;;19.07;79.88;101929.06;20859459;28;20053;-76
2022/07/15 11:17:52;;;;;;;2.47;0.45;;;;;;;19.06;81.03;101920.09;20870189;28;20049;-76
2022/07/15 11:28:01;;;;;;;0.63;0.20;;;;;;;19.06;81.52;101916.53;20830119;28;20041;-75
2022/07/15 11:38:03;;;;;;;0.60;0.20;;;;;;;19.06;81.57;101912.00;20818519;28;20106;-75
2022/07/15 11:48:06;;;;;;;2.03;0.20;;;;;;;19.07;81.79;101912.88;20875551;28;20076;-76
2022/07/15 11:58:08;;;;;;;0.73;0.30;;;;;;;19.05;81.83;101898.63;20877469;28;20052;-76
2022/07/15 12:08:11;;;;;;;0.60;0.30;;;;;;;19.05;81.73;101883.28;20863103;28;20569;-74
2022/07/15 12:18:12;;;;;;;1.10;0.60;;;;;;;19.03;81.10;101897.91;20872433;28;20045;-75
2022/07/15 12:28:29;;;;;;;1.52;0.40;;;;;;;18.98;80.88;101874.78;20829641;28;20057;-74
2022/07/15 12:38:30;;;;;;;2.88;0.70;;;;;;;19.04;80.30;101895.06;20804089;28;20550;-74
2022/07/15 12:48:43;;;;;;;1.23;0.63;;;;;;;19.07;79.96;101899.38;20874728;28;20049;-75
2022/07/15 12:58:49;;;;;;;2.70;1.00;;;;;;;18.99;79.85;101886.47;20874722;28;20051;-75
2022/07/15 13:08:51;;;;;;;1.30;0.65;;;;;;;19.08;79.74;101901.09;20863568;28;20037;-74
2022/07/15 13:18:53;;;;;;;1.33;0.60;;;;;;;19.08;79.61;101895.69;20884480;28;20114;-74
2022/07/15 13:28:55;;;;;;;2.17;0.93;;;;;;;19.09;79.60;101889.31;20816005;28;20051;-74
2022/07/15 13:38:56;;;;;;;2.05;1.15;;;;;;;19.05;80.14;101880.59;20872349;28;20053;-74
2022/07/15 13:48:58;;;;;;;1.13;0.65;;;;;;;19.10;80.53;101902.66;20825467;28;20133;-74
2022/07/15 13:59:01;;;;;;;1.90;0.60;;;;;;;19.10;80.78;101901.81;20797294;28;20052;-74
2022/07/15 14:09:02;;;;;;;2.03;1.00;;;;;;;19.11;80.44;101898.16;20850109;28;20504;-74
2022/07/15 14:19:04;;;;;;;1.20;0.70;;;;;;;19.10;80.10;101897.28;20861408;28;20367;-74
2022/07/15 14:29:06;;;;;;;1.17;0.40;;;;;;;19.12;80.44;101875.56;20854483;28;20049;-75
2022/07/15 14:39:07;;;;;;;0.95;0.60;;;;;;;19.07;80.77;101873.22;20804602;28;20052;-75
2022/07/15 14:49:09;;;;;;;0.85;0.82;;;;;;;19.09;80.80;101873.13;20804534;28;20045;-76
2022/07/15 14:59:11;;;;;;;1.27;0.50;;;;;;;19.07;81.04;101856.19;20774178;28;20049;-76
2022/07/15 15:09:12;;;;;;;0.98;0.52;;;;;;;19.06;80.63;101854.47;20772818;28;20073;-76
2022/07/15 15:19:14;;;;;;;0.80;0.55;;;;;;;19.05;80.55;101850.06;20804201;28;20049;-76
2022/07/15 15:29:16;;;;;;;1.13;0.38;;;;;;;18.79;80.43;101809.75;20769289;28;20050;-75
2022/07/15 15:39:18;;;;;;;2.42;0.70;;;;;;;18.94;80.32;101819.31;20770275;28;20053;-75
2022/07/15 15:49:19;;;;;;;1.15;0.57;;;;;;;19.01;80.09;101827.00;20833899;28;20456;-75
2022/07/15 15:59:21;;;;;;;1.77;0.47;;;;;;;18.96;80.14;101822.75;20853980;28;20049;-76
2022/07/15 16:09:22;;;;;;;2.15;0.73;;;;;;;18.97;80.29;101821.81;20851371;28;20413;-76
2022/07/15 16:19:24;;;;;;;1.00;0.73;;;;;;;18.99;80.21;101819.00;20826127;28;20494;-76
2022/07/15 16:29:25;;;;;;;2.22;0.65;;;;;;;18.98;80.13;101817.28;20793510;28;20061;-76
2022/07/15 16:39:27;;;;;;;2.47;0.77;;;;;;;18.99;80.31;101802.81;20783923;28;20051;-77
2022/07/15 16:49:29;;;;;;;2.70;0.77;;;;;;;18.97;80.29;101797.53;20791744;28;20046;-77
2022/07/15 16:59:30;;;;;;;2.47;0.93;;;;;;;18.98;80.42;101787.59;20794127;28;20211;-76
2022/07/15 17:09:33;;;;;;;1.58;0.70;;;;;;;18.83;80.21;101754.56;20782304;28;20426;-74
2022/07/15 17:19:35;;;;;;;1.23;0.75;;;;;;;19.00;80.06;101782.94;20809330;28;20052;-75
2022/07/15 17:29:39;;;;;;;1.30;0.82;;;;;;;18.97;79.93;101772.38;20811021;28;20049;-74
2022/07/15 17:39:40;;;;;;;2.50;0.93;;;;;;;18.91;80.14;101748.56;20808778;28;20520;-75
2022/07/15 17:49:43;;;;;;;2.50;0.90;;;;;;;19.03;80.07;101779.16;20835615;28;20054;-76
2022/07/15 17:59:46;;;;;;;4.32;1.00;;;;;;;18.79;80.09;101731.50;20911319;28;20064;-76
2022/07/15 18:09:47;;;;;;;1.48;1.00;;;;;;;19.01;80.29;101760.38;20885046;28;20501;-76
2022/07/15 18:19:49;;;;;;;3.05;1.00;;;;;;;19.01;80.22;101767.63;20886210;28;20072;-76
2022/07/15 18:29:50;;;;;;;1.63;0.60;;;;;;;17.38;80.30;101485.47;20886221;28;20048;-76
2022/07/15 18:39:52;;;;;;;2.20;0.73;;;;;;;18.98;80.26;101750.66;20820942;28;20099;-76
2022/07/15 18:49:53;;;;;;;3.65;1.15;;;;;;;18.88;80.48;101725.38;20866941;28;20052;-76
2022/07/15 18:59:55;;;;;;;2.08;0.90;;;;;;;18.86;80.03;101730.03;20968192;28;20044;-76
2022/07/15 19:09:57;;;;;;;1.50;0.65;;;;;;;18.91;79.92;101733.22;20965232;28;20094;-77
2022/07/15 19:19:58;;;;;;;0.85;0.65;;;;;;;18.64;80.09;101675.13;20964603;28;20044;-76
2022/07/15 19:30:00;;;;;;;0.70;0.70;;;;;;;18.93;80.26;101716.94;20965127;28;20604;-79
2022/07/15 19:40:03;;;;;;;1.33;0.68;;;;;;;18.79;80.14;101682.97;20965009;28;20863;-76
2022/07/15 19:50:05;;;;;;;1.20;0.68;;;;;;;18.91;80.47;101714.34;20933555;28;20324;-76
2022/07/15 20:00:21;;;;;;;0.82;0.70;;;;;;;18.91;80.51;101714.34;20962867;28;20040;-76
2022/07/15 20:10:24;;;;;;;1.77;0.70;;;;;;;18.91;80.28;101719.72;20962268;28;20043;-76
2022/07/15 20:20:27;;;;;;;1.05;0.65;;;;;;;18.90;80.52;101728.81;20967470;28;20406;-76
2022/07/15 20:30:29;;;;;;;1.08;0.70;;;;;;;18.89;80.67;101740.59;20980005;28;20090;-76
2022/07/15 20:40:35;;;;;;;1.05;0.60;;;;;;;18.86;80.82;101721.94;20976016;28;20466;-76
2022/07/15 20:50:38;;;;;;;1.27;0.88;;;;;;;18.84;80.64;101713.13;20949133;28;20071;-76
2022/07/15 21:00:40;;;;;;;0.88;0.60;;;;;;;18.88;80.58;101714.59;20973728;28;20497;-76
2022/07/15 21:10:42;;;;;;;1.52;0.73;;;;;;;18.88;80.55;101711.03;20959655;28;20520;-76
2022/07/15 21:20:44;;;;;;;1.23;0.85;;;;;;;18.87;80.29;101704.78;20973667;28;20489;-76
2022/07/15 21:30:45;;;;;;;2.03;0.90;;;;;;;18.81;80.24;101694.47;20972078;28;20066;-76
2022/07/15 21:40:47;;;;;;;1.70;0.95;;;;;;;18.86;80.13;101700.38;20964961;28;20566;-76
2022/07/15 21:50:49;;;;;;;1.60;0.82;;;;;;;18.86;80.18;101704.91;20971450;28;20123;-76
2022/07/15 22:00:50;;;;;;;1.38;0.80;;;;;;;18.85;80.04;101714.84;20972958;28;20474;-76
2022/07/15 22:10:57;;;;;;;1.10;0.85;;;;;;;18.63;79.85;101667.13;20971396;28;20091;-76
2022/07/15 22:20:59;;;;;;;1.48;0.88;;;;;;;18.84;79.96;101695.09;20971639;28;20079;-76
2022/07/15 22:31:00;;;;;;;1.35;0.80;;;;;;;18.84;79.78;101694.22;20968423;28;20045;-76
2022/07/15 22:41:02;;;;;;;1.05;0.82;;;;;;;18.84;79.99;101691.53;20956413;28;20457;-76
2022/07/15 22:51:04;;;;;;;0.90;0.70;;;;;;;18.84;79.92;101691.53;20969378;28;20055;-76
2022/07/15 23:01:05;;;;;;;1.17;0.60;;;;;;;18.84;79.95;101686.13;20965469;28;20146;-76
2022/07/15 23:11:07;;;;;;;1.38;0.73;;;;;;;18.83;79.95;101677.22;20965689;28;20102;-76
2022/07/15 23:21:09;;;;;;;1.17;0.70;;;;;;;18.83;79.81;101679.03;20966250;28;20048;-77
2022/07/15 23:31:10;;;;;;;1.13;0.80;;;;;;;18.82;79.64;101674.63;20947258;28;20052;-77
2022/07/15 23:41:28;;;;;;;0.95;0.80;;;;;;;18.81;79.79;101684.56;20948927;28;20053;-76
2022/07/15 23:51:29;;;;;;;0.63;0.60;;;;;;;18.80;80.01;101663.97;20964083;28;20051;-76
